sensor_id;sensor_type;location;lat;lon;timestamp;P1;durP1;ratioP1;P2;durP2;ratioP2
64682;SDS011;51107;47.652;19.016;2023-06-22T00:00:34;1.95;;;1.10;;
64682;SDS011;51107;47.652;19.016;2023-06-22T00:03:02;2.75;;;1.20;;
64682;SDS011;51107;47.652;19.016;2023-06-22T00:05:31;2.62;;;1.30;;
64682;SDS011;51107;47.652;19.016;2023-06-22T00:08:02;3.58;;;1.52;;
64682;SDS011;51107;47.652;19.016;2023-06-22T00:10:32;2.20;;;0.98;;
64682;SDS011;51107;47.652;19.016;2023-06-22T00:13:01;6.68;;;1.27;;
64682;SDS011;51107;47.652;19.016;2023-06-22T00:15:29;3.20;;;1.23;;
64682;SDS011;51107;47.652;19.016;2023-06-22T00:17:57;2.62;;;1.15;;
64682;SDS011;51107;47.652;19.016;2023-06-22T00:20:26;4.20;;;1.27;;
64682;SDS011;51107;47.652;19.016;2023-06-22T00:22:59;3.50;;;1.95;;
64682;SDS011;51107;47.652;19.016;2023-06-22T00:25:27;4.85;;;1.42;;
64682;SDS011;51107;47.652;19.016;2023-06-22T00:27:56;2.30;;;1.08;;
64682;SDS011;51107;47.652;19.016;2023-06-22T00:30:24;1.05;;;0.90;;
64682;SDS011;51107;47.652;19.016;2023-06-22T00:32:53;3.10;;;1.12;;
64682;SDS011;51107;47.652;19.016;2023-06-22T00:35:22;1.45;;;1.00;;
64682;SDS011;51107;47.652;19.016;2023-06-22T00:37:50;2.55;;;1.15;;
64682;SDS011;51107;47.652;19.016;2023-06-22T00:40:25;1.45;;;1.08;;
64682;SDS011;51107;47.652;19.016;2023-06-22T00:42:55;3.75;;;1.62;;
64682;SDS011;51107;47.652;19.016;2023-06-22T00:45:23;1.87;;;1.27;;
64682;SDS011;51107;47.652;19.016;2023-06-22T00:47:52;1.62;;;1.15;;
64682;SDS011;51107;47.652;19.016;2023-06-22T00:50:28;1.70;;;1.20;;
64682;SDS011;51107;47.652;19.016;2023-06-22T00:53:05;1.27;;;0.90;;
64682;SDS011;51107;47.652;19.016;2023-06-22T00:55:41;1.25;;;0.80;;
64682;SDS011;51107;47.652;19.016;2023-06-22T00:58:14;6.35;;;1.10;;
64682;SDS011;51107;47.652;19.016;2023-06-22T01:00:43;2.75;;;1.33;;
64682;SDS011;51107;47.652;19.016;2023-06-22T01:03:12;2.00;;;1.10;;
64682;SDS011;51107;47.652;19.016;2023-06-22T01:05:40;2.42;;;0.88;;
64682;SDS011;51107;47.652;19.016;2023-06-22T01:16:18;2.92;;;1.12;;
64682;SDS011;51107;47.652;19.016;2023-06-22T01:18:52;2.47;;;1.15;;
64682;SDS011;51107;47.652;19.016;2023-06-22T01:21:23;5.22;;;1.10;;
64682;SDS011;51107;47.652;19.016;2023-06-22T01:23:56;1.30;;;0.90;;
64682;SDS011;51107;47.652;19.016;2023-06-22T01:26:37;2.95;;;0.93;;
64682;SDS011;51107;47.652;19.016;2023-06-22T01:31:41;2.53;;;0.90;;
64682;SDS011;51107;47.652;19.016;2023-06-22T01:34:12;1.37;;;0.98;;
64682;SDS011;51107;47.652;19.016;2023-06-22T01:36:42;1.50;;;0.80;;
64682;SDS011;51107;47.652;19.016;2023-06-22T01:39:11;0.95;;;0.85;;
64682;SDS011;51107;47.652;19.016;2023-06-22T01:41:42;0.90;;;0.85;;
64682;SDS011;51107;47.652;19.016;2023-06-22T01:44:11;5.85;;;1.05;;
64682;SDS011;51107;47.652;19.016;2023-06-22T01:46:39;8.23;;;1.12;;
64682;SDS011;51107;47.652;19.016;2023-06-22T01:49:09;2.75;;;0.95;;
64682;SDS011;51107;47.652;19.016;2023-06-22T01:51:37;1.95;;;0.80;;
64682;SDS011;51107;47.652;19.016;2023-06-22T01:54:06;3.08;;;1.50;;
64682;SDS011;51107;47.652;19.016;2023-06-22T01:56:36;3.47;;;1.20;;
64682;SDS011;51107;47.652;19.016;2023-06-22T01:59:08;1.58;;;1.10;;
64682;SDS011;51107;47.652;19.016;2023-06-22T02:01:57;2.10;;;1.35;;
64682;SDS011;51107;47.652;19.016;2023-06-22T02:04:47;1.95;;;1.05;;
64682;SDS011;51107;47.652;19.016;2023-06-22T02:07:19;4.45;;;1.60;;
64682;SDS011;51107;47.652;19.016;2023-06-22T02:09:51;1.25;;;0.80;;
64682;SDS011;51107;47.652;19.016;2023-06-22T02:12:23;4.00;;;1.20;;
64682;SDS011;51107;47.652;19.016;2023-06-22T02:14:55;2.28;;;1.02;;
64682;SDS011;51107;47.652;19.016;2023-06-22T02:17:24;1.40;;;0.88;;
64682;SDS011;51107;47.652;19.016;2023-06-22T02:19:54;3.70;;;1.12;;
64682;SDS011;51107;47.652;19.016;2023-06-22T02:22:22;3.72;;;1.25;;
64682;SDS011;51107;47.652;19.016;2023-06-22T02:24:51;1.17;;;1.00;;
64682;SDS011;51107;47.652;19.016;2023-06-22T02:27:21;1.48;;;0.95;;
64682;SDS011;51107;47.652;19.016;2023-06-22T02:33:02;4.87;;;1.10;;
64682;SDS011;51107;47.652;19.016;2023-06-22T02:35:31;2.95;;;1.10;;
64682;SDS011;51107;47.652;19.016;2023-06-22T02:37:59;2.42;;;0.80;;
64682;SDS011;51107;47.652;19.016;2023-06-22T02:40:29;1.12;;;0.77;;
64682;SDS011;51107;47.652;19.016;2023-06-22T02:42:58;2.12;;;0.93;;
64682;SDS011;51107;47.652;19.016;2023-06-22T02:45:30;3.80;;;0.70;;
64682;SDS011;51107;47.652;19.016;2023-06-22T02:47:58;0.93;;;0.60;;
64682;SDS011;51107;47.652;19.016;2023-06-22T02:50:27;1.48;;;0.77;;
64682;SDS011;51107;47.652;19.016;2023-06-22T02:52:57;5.03;;;1.08;;
64682;SDS011;51107;47.652;19.016;2023-06-22T02:55:27;1.40;;;0.93;;
64682;SDS011;51107;47.652;19.016;2023-06-22T02:57:56;3.80;;;1.23;;
64682;SDS011;51107;47.652;19.016;2023-06-22T03:00:25;1.33;;;0.88;;
64682;SDS011;51107;47.652;19.016;2023-06-22T03:02:59;1.25;;;1.02;;
64682;SDS011;51107;47.652;19.016;2023-06-22T03:05:28;3.70;;;1.12;;
64682;SDS011;51107;47.652;19.016;2023-06-22T03:07:57;3.10;;;0.93;;
64682;SDS011;51107;47.652;19.016;2023-06-22T03:10:26;1.75;;;0.90;;
64682;SDS011;51107;47.652;19.016;2023-06-22T03:12:54;2.85;;;0.98;;
64682;SDS011;51107;47.652;19.016;2023-06-22T03:15:22;3.47;;;1.25;;
64682;SDS011;51107;47.652;19.016;2023-06-22T03:17:51;3.05;;;1.55;;
64682;SDS011;51107;47.652;19.016;2023-06-22T03:20:19;6.32;;;1.60;;
64682;SDS011;51107;47.652;19.016;2023-06-22T03:22:47;2.78;;;0.98;;
64682;SDS011;51107;47.652;19.016;2023-06-22T03:25:17;1.30;;;0.82;;
64682;SDS011;51107;47.652;19.016;2023-06-22T03:27:45;2.60;;;1.00;;
64682;SDS011;51107;47.652;19.016;2023-06-22T03:30:14;2.58;;;0.98;;
64682;SDS011;51107;47.652;19.016;2023-06-22T03:32:42;1.30;;;1.10;;
64682;SDS011;51107;47.652;19.016;2023-06-22T03:35:11;2.15;;;1.30;;
64682;SDS011;51107;47.652;19.016;2023-06-22T03:37:41;7.28;;;1.30;;
64682;SDS011;51107;47.652;19.016;2023-06-22T03:40:10;1.77;;;1.10;;
64682;SDS011;51107;47.652;19.016;2023-06-22T03:42:39;1.48;;;0.70;;
64682;SDS011;51107;47.652;19.016;2023-06-22T03:45:09;4.32;;;1.25;;
64682;SDS011;51107;47.652;19.016;2023-06-22T03:47:38;4.30;;;1.10;;
64682;SDS011;51107;47.652;19.016;2023-06-22T03:50:07;1.67;;;0.95;;
64682;SDS011;51107;47.652;19.016;2023-06-22T03:52:35;1.05;;;0.85;;
64682;SDS011;51107;47.652;19.016;2023-06-22T03:55:04;1.62;;;1.08;;
64682;SDS011;51107;47.652;19.016;2023-06-22T03:57:32;2.05;;;0.90;;
64682;SDS011;51107;47.652;19.016;2023-06-22T04:00:01;2.35;;;1.30;;
64682;SDS011;51107;47.652;19.016;2023-06-22T04:02:38;2.05;;;1.37;;
64682;SDS011;51107;47.652;19.016;2023-06-22T04:05:08;1.02;;;0.93;;
64682;SDS011;51107;47.652;19.016;2023-06-22T04:07:37;1.62;;;1.10;;
64682;SDS011;51107;47.652;19.016;2023-06-22T04:10:05;1.35;;;0.88;;
64682;SDS011;51107;47.652;19.016;2023-06-22T04:12:34;1.50;;;0.98;;
64682;SDS011;51107;47.652;19.016;2023-06-22T04:15:02;1.12;;;0.95;;
64682;SDS011;51107;47.652;19.016;2023-06-22T04:17:30;1.98;;;1.48;;
64682;SDS011;51107;47.652;19.016;2023-06-22T04:19:58;2.05;;;0.77;;
64682;SDS011;51107;47.652;19.016;2023-06-22T04:22:27;1.95;;;1.05;;
64682;SDS011;51107;47.652;19.016;2023-06-22T04:24:55;3.67;;;0.90;;
64682;SDS011;51107;47.652;19.016;2023-06-22T04:27:23;0.93;;;0.85;;
64682;SDS011;51107;47.652;19.016;2023-06-22T04:29:51;0.77;;;0.70;;
64682;SDS011;51107;47.652;19.016;2023-06-22T04:32:20;1.40;;;1.10;;
64682;SDS011;51107;47.652;19.016;2023-06-22T04:34:49;1.80;;;0.93;;
64682;SDS011;51107;47.652;19.016;2023-06-22T04:37:17;2.67;;;1.20;;
64682;SDS011;51107;47.652;19.016;2023-06-22T04:39:45;2.47;;;1.20;;
64682;SDS011;51107;47.652;19.016;2023-06-22T04:42:13;1.50;;;1.10;;
64682;SDS011;51107;47.652;19.016;2023-06-22T04:44:42;8.30;;;1.20;;
64682;SDS011;51107;47.652;19.016;2023-06-22T04:47:10;2.03;;;1.20;;
64682;SDS011;51107;47.652;19.016;2023-06-22T04:49:38;2.47;;;1.10;;
64682;SDS011;51107;47.652;19.016;2023-06-22T04:52:09;1.92;;;1.00;;
64682;SDS011;51107;47.652;19.016;2023-06-22T04:54:40;2.85;;;1.00;;
64682;SDS011;51107;47.652;19.016;2023-06-22T04:57:16;3.60;;;1.12;;
64682;SDS011;51107;47.652;19.016;2023-06-22T04:59:44;2.65;;;1.10;;
64682;SDS011;51107;47.652;19.016;2023-06-22T05:02:12;6.00;;;1.02;;
64682;SDS011;51107;47.652;19.016;2023-06-22T05:04:40;1.80;;;0.98;;
64682;SDS011;51107;47.652;19.016;2023-06-22T05:07:09;1.87;;;0.90;;
64682;SDS011;51107;47.652;19.016;2023-06-22T05:09:37;2.83;;;1.40;;
64682;SDS011;51107;47.652;19.016;2023-06-22T05:12:06;4.12;;;1.05;;
64682;SDS011;51107;47.652;19.016;2023-06-22T05:14:38;1.58;;;1.00;;
64682;SDS011;51107;47.652;19.016;2023-06-22T05:17:06;2.25;;;1.05;;
64682;SDS011;51107;47.652;19.016;2023-06-22T05:19:43;2.10;;;1.20;;
64682;SDS011;51107;47.652;19.016;2023-06-22T05:22:15;1.37;;;1.00;;
64682;SDS011;51107;47.652;19.016;2023-06-22T05:24:44;4.03;;;1.17;;
64682;SDS011;51107;47.652;19.016;2023-06-22T05:27:13;2.25;;;1.00;;
64682;SDS011;51107;47.652;19.016;2023-06-22T05:29:42;3.97;;;1.33;;
64682;SDS011;51107;47.652;19.016;2023-06-22T05:32:10;2.75;;;1.20;;
64682;SDS011;51107;47.652;19.016;2023-06-22T05:34:39;2.47;;;1.12;;
64682;SDS011;51107;47.652;19.016;2023-06-22T05:37:07;6.07;;;1.12;;
64682;SDS011;51107;47.652;19.016;2023-06-22T05:39:37;5.22;;;1.20;;
64682;SDS011;51107;47.652;19.016;2023-06-22T05:42:06;1.80;;;0.88;;
64682;SDS011;51107;47.652;19.016;2023-06-22T05:44:38;1.60;;;0.88;;
64682;SDS011;51107;47.652;19.016;2023-06-22T05:47:08;1.75;;;1.12;;
64682;SDS011;51107;47.652;19.016;2023-06-22T05:49:36;3.25;;;1.30;;
64682;SDS011;51107;47.652;19.016;2023-06-22T05:52:05;1.00;;;0.90;;
64682;SDS011;51107;47.652;19.016;2023-06-22T05:54:33;2.60;;;1.20;;
64682;SDS011;51107;47.652;19.016;2023-06-22T05:57:01;2.62;;;1.42;;
64682;SDS011;51107;47.652;19.016;2023-06-22T05:59:30;1.58;;;1.08;;
64682;SDS011;51107;47.652;19.016;2023-06-22T06:01:58;2.00;;;1.17;;
64682;SDS011;51107;47.652;19.016;2023-06-22T06:04:27;2.03;;;1.30;;
64682;SDS011;51107;47.652;19.016;2023-06-22T06:06:55;1.42;;;1.05;;
64682;SDS011;51107;47.652;19.016;2023-06-22T06:09:23;2.10;;;1.00;;
64682;SDS011;51107;47.652;19.016;2023-06-22T06:11:52;1.87;;;1.02;;
64682;SDS011;51107;47.652;19.016;2023-06-22T06:14:20;3.15;;;1.00;;
64682;SDS011;51107;47.652;19.016;2023-06-22T06:16:49;1.50;;;1.10;;
64682;SDS011;51107;47.652;19.016;2023-06-22T06:19:17;1.37;;;1.02;;
64682;SDS011;51107;47.652;19.016;2023-06-22T06:21:45;3.10;;;1.30;;
64682;SDS011;51107;47.652;19.016;2023-06-22T06:24:14;1.77;;;1.17;;
64682;SDS011;51107;47.652;19.016;2023-06-22T06:26:42;4.65;;;1.62;;
64682;SDS011;51107;47.652;19.016;2023-06-22T06:29:10;1.98;;;1.40;;
64682;SDS011;51107;47.652;19.016;2023-06-22T06:31:39;2.12;;;1.48;;
64682;SDS011;51107;47.652;19.016;2023-06-22T06:34:07;8.75;;;1.73;;
64682;SDS011;51107;47.652;19.016;2023-06-22T06:36:36;1.75;;;1.20;;
64682;SDS011;51107;47.652;19.016;2023-06-22T06:39:05;1.90;;;1.37;;
64682;SDS011;51107;47.652;19.016;2023-06-22T06:41:33;1.62;;;1.15;;
64682;SDS011;51107;47.652;19.016;2023-06-22T06:44:01;2.75;;;1.25;;
64682;SDS011;51107;47.652;19.016;2023-06-22T06:46:29;3.45;;;1.30;;
64682;SDS011;51107;47.652;19.016;2023-06-22T06:48:58;1.75;;;1.30;;
64682;SDS011;51107;47.652;19.016;2023-06-22T06:51:27;5.55;;;1.50;;
64682;SDS011;51107;47.652;19.016;2023-06-22T06:53:55;2.75;;;1.40;;
64682;SDS011;51107;47.652;19.016;2023-06-22T06:56:23;1.95;;;1.40;;
64682;SDS011;51107;47.652;19.016;2023-06-22T06:58:52;3.15;;;1.70;;
64682;SDS011;51107;47.652;19.016;2023-06-22T07:01:20;3.12;;;1.75;;
64682;SDS011;51107;47.652;19.016;2023-06-22T07:03:49;1.67;;;1.17;;
64682;SDS011;51107;47.652;19.016;2023-06-22T07:06:18;1.80;;;1.15;;
64682;SDS011;51107;47.652;19.016;2023-06-22T07:08:46;2.45;;;1.62;;
64682;SDS011;51107;47.652;19.016;2023-06-22T07:11:14;2.33;;;1.62;;
64682;SDS011;51107;47.652;19.016;2023-06-22T07:13:42;2.22;;;1.30;;
64682;SDS011;51107;47.652;19.016;2023-06-22T07:16:10;3.80;;;1.40;;
64682;SDS011;51107;47.652;19.016;2023-06-22T07:18:39;3.80;;;1.60;;
64682;SDS011;51107;47.652;19.016;2023-06-22T07:21:08;2.10;;;1.23;;
64682;SDS011;51107;47.652;19.016;2023-06-22T07:23:36;3.22;;;1.50;;
64682;SDS011;51107;47.652;19.016;2023-06-22T07:26:05;2.60;;;1.30;;
64682;SDS011;51107;47.652;19.016;2023-06-22T07:28:34;1.65;;;1.25;;
64682;SDS011;51107;47.652;19.016;2023-06-22T07:31:06;3.28;;;1.40;;
64682;SDS011;51107;47.652;19.016;2023-06-22T07:33:34;2.62;;;1.58;;
64682;SDS011;51107;47.652;19.016;2023-06-22T07:36:03;2.92;;;1.35;;
64682;SDS011;51107;47.652;19.016;2023-06-22T07:38:35;2.22;;;1.40;;
64682;SDS011;51107;47.652;19.016;2023-06-22T07:41:04;2.47;;;1.17;;
64682;SDS011;51107;47.652;19.016;2023-06-22T07:43:33;3.12;;;1.65;;
64682;SDS011;51107;47.652;19.016;2023-06-22T07:46:05;4.45;;;1.12;;
64682;SDS011;51107;47.652;19.016;2023-06-22T07:48:36;2.10;;;1.20;;
64682;SDS011;51107;47.652;19.016;2023-06-22T07:51:05;3.95;;;1.70;;
64682;SDS011;51107;47.652;19.016;2023-06-22T07:53:34;1.00;;;0.90;;
64682;SDS011;51107;47.652;19.016;2023-06-22T07:56:03;1.73;;;1.35;;
64682;SDS011;51107;47.652;19.016;2023-06-22T07:58:35;2.78;;;1.67;;
64682;SDS011;51107;47.652;19.016;2023-06-22T08:01:03;2.97;;;1.90;;
64682;SDS011;51107;47.652;19.016;2023-06-22T08:03:33;3.55;;;1.58;;
64682;SDS011;51107;47.652;19.016;2023-06-22T08:06:01;3.67;;;1.83;;
64682;SDS011;51107;47.652;19.016;2023-06-22T08:08:30;2.33;;;1.50;;
64682;SDS011;51107;47.652;19.016;2023-06-22T08:10:58;3.72;;;1.12;;
64682;SDS011;51107;47.652;19.016;2023-06-22T08:13:27;2.75;;;1.20;;
64682;SDS011;51107;47.652;19.016;2023-06-22T08:15:55;3.28;;;1.50;;
64682;SDS011;51107;47.652;19.016;2023-06-22T08:18:23;2.03;;;1.17;;
64682;SDS011;51107;47.652;19.016;2023-06-22T08:20:51;1.25;;;1.00;;
64682;SDS011;51107;47.652;19.016;2023-06-22T08:23:20;7.05;;;1.52;;
64682;SDS011;51107;47.652;19.016;2023-06-22T08:25:48;3.60;;;1.33;;
64682;SDS011;51107;47.652;19.016;2023-06-22T08:28:17;1.90;;;1.40;;
64682;SDS011;51107;47.652;19.016;2023-06-22T08:30:46;2.03;;;1.37;;
64682;SDS011;51107;47.652;19.016;2023-06-22T08:33:14;2.95;;;1.70;;
64682;SDS011;51107;47.652;19.016;2023-06-22T08:35:54;1.60;;;1.30;;
64682;SDS011;51107;47.652;19.016;2023-06-22T08:38:23;3.97;;;1.58;;
64682;SDS011;51107;47.652;19.016;2023-06-22T08:40:54;2.35;;;1.58;;
64682;SDS011;51107;47.652;19.016;2023-06-22T08:43:22;1.67;;;1.27;;
64682;SDS011;51107;47.652;19.016;2023-06-22T08:45:51;2.17;;;1.60;;
64682;SDS011;51107;47.652;19.016;2023-06-22T08:48:19;1.87;;;1.50;;
64682;SDS011;51107;47.652;19.016;2023-06-22T08:50:47;2.12;;;1.42;;
64682;SDS011;51107;47.652;19.016;2023-06-22T08:53:15;1.98;;;1.50;;
64682;SDS011;51107;47.652;19.016;2023-06-22T08:55:43;3.97;;;1.75;;
64682;SDS011;51107;47.652;19.016;2023-06-22T08:58:11;2.70;;;1.67;;
64682;SDS011;51107;47.652;19.016;2023-06-22T09:00:40;4.00;;;1.65;;
64682;SDS011;51107;47.652;19.016;2023-06-22T09:03:08;1.58;;;1.25;;
64682;SDS011;51107;47.652;19.016;2023-06-22T09:05:37;3.25;;;1.90;;
64682;SDS011;51107;47.652;19.016;2023-06-22T09:08:05;2.80;;;1.48;;
64682;SDS011;51107;47.652;19.016;2023-06-22T09:10:33;4.15;;;1.80;;
64682;SDS011;51107;47.652;19.016;2023-06-22T09:13:02;1.50;;;1.20;;
64682;SDS011;51107;47.652;19.016;2023-06-22T09:15:30;1.33;;;1.20;;
64682;SDS011;51107;47.652;19.016;2023-06-22T09:17:59;4.18;;;1.92;;
64682;SDS011;51107;47.652;19.016;2023-06-22T09:20:27;3.30;;;1.60;;
64682;SDS011;51107;47.652;19.016;2023-06-22T09:22:57;2.80;;;1.90;;
64682;SDS011;51107;47.652;19.016;2023-06-22T09:25:25;2.58;;;1.80;;
64682;SDS011;51107;47.652;19.016;2023-06-22T09:27:54;2.55;;;1.40;;
64682;SDS011;51107;47.652;19.016;2023-06-22T09:30:23;2.33;;;1.85;;
64682;SDS011;51107;47.652;19.016;2023-06-22T09:32:51;1.85;;;1.45;;
64682;SDS011;51107;47.652;19.016;2023-06-22T09:35:20;1.75;;;1.40;;
64682;SDS011;51107;47.652;19.016;2023-06-22T09:37:48;3.05;;;1.90;;
64682;SDS011;51107;47.652;19.016;2023-06-22T09:40:16;1.95;;;1.70;;
64682;SDS011;51107;47.652;19.016;2023-06-22T09:42:45;2.80;;;1.50;;
64682;SDS011;51107;47.652;19.016;2023-06-22T09:45:13;5.45;;;1.55;;
64682;SDS011;51107;47.652;19.016;2023-06-22T09:47:41;2.58;;;1.73;;
64682;SDS011;51107;47.652;19.016;2023-06-22T09:50:10;2.25;;;1.65;;
64682;SDS011;51107;47.652;19.016;2023-06-22T09:52:39;4.45;;;1.62;;
64682;SDS011;51107;47.652;19.016;2023-06-22T09:55:10;4.25;;;1.95;;
64682;SDS011;51107;47.652;19.016;2023-06-22T09:57:38;2.78;;;1.85;;
64682;SDS011;51107;47.652;19.016;2023-06-22T10:00:07;3.05;;;1.90;;
64682;SDS011;51107;47.652;19.016;2023-06-22T10:02:37;1.90;;;1.65;;
64682;SDS011;51107;47.652;19.016;2023-06-22T10:05:05;2.90;;;1.60;;
64682;SDS011;51107;47.652;19.016;2023-06-22T10:07:36;5.57;;;1.70;;
64682;SDS011;51107;47.652;19.016;2023-06-22T10:10:12;3.60;;;1.70;;
64682;SDS011;51107;47.652;19.016;2023-06-22T10:12:42;4.70;;;2.30;;
64682;SDS011;51107;47.652;19.016;2023-06-22T10:15:15;5.05;;;2.00;;
64682;SDS011;51107;47.652;19.016;2023-06-22T10:17:44;2.97;;;2.17;;
64682;SDS011;51107;47.652;19.016;2023-06-22T10:20:12;3.95;;;2.03;;
64682;SDS011;51107;47.652;19.016;2023-06-22T10:22:42;4.93;;;2.35;;
64682;SDS011;51107;47.652;19.016;2023-06-22T10:25:12;1.90;;;1.70;;
64682;SDS011;51107;47.652;19.016;2023-06-22T10:27:41;2.45;;;1.77;;
64682;SDS011;51107;47.652;19.016;2023-06-22T10:30:10;3.08;;;1.90;;
64682;SDS011;51107;47.652;19.016;2023-06-22T10:32:41;5.80;;;1.85;;
64682;SDS011;51107;47.652;19.016;2023-06-22T10:35:13;4.20;;;2.12;;
64682;SDS011;51107;47.652;19.016;2023-06-22T10:37:44;3.42;;;2.28;;
64682;SDS011;51107;47.652;19.016;2023-06-22T10:40:13;2.97;;;2.10;;
64682;SDS011;51107;47.652;19.016;2023-06-22T10:42:43;3.53;;;2.08;;
64682;SDS011;51107;47.652;19.016;2023-06-22T10:45:12;4.32;;;2.33;;
64682;SDS011;51107;47.652;19.016;2023-06-22T10:47:41;2.87;;;2.05;;
64682;SDS011;51107;47.652;19.016;2023-06-22T10:50:12;4.47;;;2.37;;
64682;SDS011;51107;47.652;19.016;2023-06-22T10:52:41;2.40;;;2.03;;
64682;SDS011;51107;47.652;19.016;2023-06-22T10:55:10;3.45;;;2.25;;
64682;SDS011;51107;47.652;19.016;2023-06-22T10:57:38;3.22;;;2.35;;
64682;SDS011;51107;47.652;19.016;2023-06-22T11:00:11;2.67;;;2.12;;
64682;SDS011;51107;47.652;19.016;2023-06-22T11:02:41;2.55;;;1.92;;
64682;SDS011;51107;47.652;19.016;2023-06-22T11:05:10;2.40;;;1.90;;
64682;SDS011;51107;47.652;19.016;2023-06-22T11:07:41;2.40;;;1.98;;
64682;SDS011;51107;47.652;19.016;2023-06-22T11:10:16;3.40;;;2.12;;
64682;SDS011;51107;47.652;19.016;2023-06-22T11:12:44;4.32;;;1.90;;
64682;SDS011;51107;47.652;19.016;2023-06-22T11:15:12;2.22;;;2.00;;
64682;SDS011;51107;47.652;19.016;2023-06-22T11:17:41;5.97;;;2.10;;
64682;SDS011;51107;47.652;19.016;2023-06-22T11:20:09;4.03;;;2.20;;
64682;SDS011;51107;47.652;19.016;2023-06-22T11:22:42;3.67;;;2.28;;
64682;SDS011;51107;47.652;19.016;2023-06-22T11:25:10;4.60;;;2.20;;
64682;SDS011;51107;47.652;19.016;2023-06-22T11:27:40;3.25;;;2.28;;
64682;SDS011;51107;47.652;19.016;2023-06-22T11:30:08;4.70;;;2.30;;
64682;SDS011;51107;47.652;19.016;2023-06-22T11:32:37;5.05;;;2.67;;
64682;SDS011;51107;47.652;19.016;2023-06-22T11:35:06;3.55;;;2.08;;
64682;SDS011;51107;47.652;19.016;2023-06-22T11:37:35;3.17;;;2.03;;
64682;SDS011;51107;47.652;19.016;2023-06-22T11:40:04;2.92;;;2.10;;
64682;SDS011;51107;47.652;19.016;2023-06-22T11:42:35;5.47;;;2.28;;
64682;SDS011;51107;47.652;19.016;2023-06-22T11:45:04;4.43;;;2.20;;
64682;SDS011;51107;47.652;19.016;2023-06-22T11:47:33;3.55;;;2.15;;
64682;SDS011;51107;47.652;19.016;2023-06-22T11:50:01;3.75;;;2.25;;
64682;SDS011;51107;47.652;19.016;2023-06-22T11:52:30;4.62;;;2.50;;
64682;SDS011;51107;47.652;19.016;2023-06-22T11:54:59;3.65;;;2.20;;
64682;SDS011;51107;47.652;19.016;2023-06-22T11:57:27;3.50;;;2.00;;
64682;SDS011;51107;47.652;19.016;2023-06-22T11:59:55;2.78;;;2.20;;
64682;SDS011;51107;47.652;19.016;2023-06-22T12:02:24;4.40;;;2.10;;
64682;SDS011;51107;47.652;19.016;2023-06-22T12:04:53;3.37;;;2.03;;
64682;SDS011;51107;47.652;19.016;2023-06-22T12:07:23;3.10;;;2.10;;
64682;SDS011;51107;47.652;19.016;2023-06-22T12:09:52;3.72;;;2.03;;
64682;SDS011;51107;47.652;19.016;2023-06-22T12:12:20;2.85;;;2.05;;
64682;SDS011;51107;47.652;19.016;2023-06-22T12:14:49;3.40;;;2.28;;
64682;SDS011;51107;47.652;19.016;2023-06-22T12:17:17;3.85;;;1.90;;
64682;SDS011;51107;47.652;19.016;2023-06-22T12:19:45;4.60;;;2.35;;
64682;SDS011;51107;47.652;19.016;2023-06-22T12:22:13;2.55;;;1.77;;
64682;SDS011;51107;47.652;19.016;2023-06-22T12:24:41;6.05;;;2.42;;
64682;SDS011;51107;47.652;19.016;2023-06-22T12:27:10;3.60;;;2.20;;
64682;SDS011;51107;47.652;19.016;2023-06-22T12:29:38;6.07;;;2.42;;
64682;SDS011;51107;47.652;19.016;2023-06-22T12:32:06;2.80;;;2.15;;
64682;SDS011;51107;47.652;19.016;2023-06-22T12:34:35;3.35;;;1.77;;
64682;SDS011;51107;47.652;19.016;2023-06-22T12:37:03;3.97;;;1.95;;
64682;SDS011;51107;47.652;19.016;2023-06-22T12:39:33;2.10;;;1.65;;
64682;SDS011;51107;47.652;19.016;2023-06-22T12:42:01;6.80;;;2.15;;
64682;SDS011;51107;47.652;19.016;2023-06-22T12:44:30;8.45;;;2.30;;
64682;SDS011;51107;47.652;19.016;2023-06-22T12:46:59;3.53;;;2.40;;
64682;SDS011;51107;47.652;19.016;2023-06-22T12:49:27;5.00;;;2.05;;
64682;SDS011;51107;47.652;19.016;2023-06-22T12:51:55;3.40;;;2.22;;
64682;SDS011;51107;47.652;19.016;2023-06-22T12:54:24;4.53;;;2.50;;
64682;SDS011;51107;47.652;19.016;2023-06-22T12:56:52;3.12;;;1.98;;
64682;SDS011;51107;47.652;19.016;2023-06-22T12:59:22;3.50;;;2.25;;
64682;SDS011;51107;47.652;19.016;2023-06-22T13:01:51;3.90;;;2.35;;
64682;SDS011;51107;47.652;19.016;2023-06-22T13:04:19;4.05;;;2.08;;
64682;SDS011;51107;47.652;19.016;2023-06-22T13:06:49;3.50;;;2.00;;
64682;SDS011;51107;47.652;19.016;2023-06-22T13:09:19;3.92;;;2.00;;
64682;SDS011;51107;47.652;19.016;2023-06-22T13:11:48;4.18;;;2.33;;
64682;SDS011;51107;47.652;19.016;2023-06-22T13:14:16;2.47;;;1.92;;
64682;SDS011;51107;47.652;19.016;2023-06-22T13:16:46;3.47;;;2.15;;
64682;SDS011;51107;47.652;19.016;2023-06-22T13:19:14;3.47;;;2.30;;
64682;SDS011;51107;47.652;19.016;2023-06-22T13:21:42;3.90;;;2.20;;
64682;SDS011;51107;47.652;19.016;2023-06-22T13:24:11;3.03;;;2.00;;
64682;SDS011;51107;47.652;19.016;2023-06-22T13:26:39;2.17;;;1.77;;
64682;SDS011;51107;47.652;19.016;2023-06-22T13:29:08;4.45;;;2.10;;
64682;SDS011;51107;47.652;19.016;2023-06-22T13:31:37;2.45;;;1.77;;
64682;SDS011;51107;47.652;19.016;2023-06-22T13:34:05;3.72;;;2.28;;
64682;SDS011;51107;47.652;19.016;2023-06-22T13:36:33;3.58;;;2.10;;
64682;SDS011;51107;47.652;19.016;2023-06-22T13:39:01;3.62;;;2.05;;
64682;SDS011;51107;47.652;19.016;2023-06-22T13:41:30;3.37;;;2.30;;
64682;SDS011;51107;47.652;19.016;2023-06-22T13:43:58;3.90;;;2.62;;
64682;SDS011;51107;47.652;19.016;2023-06-22T13:46:27;5.00;;;2.42;;
64682;SDS011;51107;47.652;19.016;2023-06-22T13:48:56;3.17;;;2.00;;
64682;SDS011;51107;47.652;19.016;2023-06-22T13:51:24;3.17;;;2.40;;
64682;SDS011;51107;47.652;19.016;2023-06-22T13:53:52;4.55;;;2.40;;
64682;SDS011;51107;47.652;19.016;2023-06-22T13:56:20;3.58;;;2.45;;
64682;SDS011;51107;47.652;19.016;2023-06-22T13:58:49;3.17;;;2.22;;
64682;SDS011;51107;47.652;19.016;2023-06-22T14:01:18;2.72;;;2.28;;
64682;SDS011;51107;47.652;19.016;2023-06-22T14:03:47;4.25;;;2.42;;
64682;SDS011;51107;47.652;19.016;2023-06-22T14:06:16;3.80;;;2.70;;
64682;SDS011;51107;47.652;19.016;2023-06-22T14:08:44;6.37;;;3.10;;
64682;SDS011;51107;47.652;19.016;2023-06-22T14:11:13;3.90;;;2.33;;
64682;SDS011;51107;47.652;19.016;2023-06-22T14:13:41;3.42;;;2.45;;
64682;SDS011;51107;47.652;19.016;2023-06-22T14:16:10;3.95;;;2.65;;
64682;SDS011;51107;47.652;19.016;2023-06-22T14:18:39;3.08;;;2.70;;
64682;SDS011;51107;47.652;19.016;2023-06-22T14:21:07;4.32;;;2.53;;
64682;SDS011;51107;47.652;19.016;2023-06-22T14:23:35;7.07;;;2.40;;
64682;SDS011;51107;47.652;19.016;2023-06-22T14:26:05;3.08;;;2.28;;
64682;SDS011;51107;47.652;19.016;2023-06-22T14:28:33;5.57;;;2.72;;
64682;SDS011;51107;47.652;19.016;2023-06-22T14:31:01;4.32;;;2.75;;
64682;SDS011;51107;47.652;19.016;2023-06-22T14:33:30;9.23;;;2.80;;
64682;SDS011;51107;47.652;19.016;2023-06-22T14:35:58;3.45;;;2.70;;
64682;SDS011;51107;47.652;19.016;2023-06-22T14:38:26;5.22;;;2.65;;
64682;SDS011;51107;47.652;19.016;2023-06-22T14:40:55;6.95;;;2.75;;
64682;SDS011;51107;47.652;19.016;2023-06-22T14:43:44;3.80;;;2.70;;
64682;SDS011;51107;47.652;19.016;2023-06-22T14:46:15;3.25;;;2.70;;
64682;SDS011;51107;47.652;19.016;2023-06-22T14:48:44;5.72;;;3.00;;
64682;SDS011;51107;47.652;19.016;2023-06-22T14:51:12;3.05;;;2.70;;
64682;SDS011;51107;47.652;19.016;2023-06-22T14:53:45;3.83;;;2.62;;
64682;SDS011;51107;47.652;19.016;2023-06-22T14:56:13;3.55;;;3.00;;
64682;SDS011;51107;47.652;19.016;2023-06-22T14:58:44;6.20;;;2.83;;